Time;durP1;ratioP1;P1;durP2;ratioP2;P2;SDS_P1;SDS_P2;PMS_P1;PMS_P2;Temp;Humidity;BMP_temperature;BMP_pressure;BME280_temperature;BME280_humidity;BME280_pressure;Samples;Min_cycle;Max_cycle;Signal;HPM_P1;HPM_P2
2021/06/13 00:01:57;;;;;;;5.30;4.83;;;;;;;16.09;70.99;97193.61;1629544;87;20966;-77
2021/06/13 00:04:25;;;;;;;6.72;5.58;;;;;;;16.13;70.91;97192.05;1622461;88;21041;-77
2021/06/13 00:06:53;;;;;;;7.45;5.03;;;;;;;16.13;71.07;97194.25;1622226;88;21085;-76
2021/06/13 00:09:21;;;;;;;6.20;5.60;;;;;;;16.13;71.02;97184.03;1630366;87;21024;-77
2021/06/13 00:11:49;;;;;;;6.72;5.17;;;;;;;16.13;70.99;97190.24;1634009;87;21048;-77
2021/06/13 00:14:18;;;;;;;6.55;5.50;;;;;;;16.15;71.04;97188.31;1607710;88;21054;-81
2021/06/13 00:16:45;;;;;;;6.62;5.55;;;;;;;16.18;70.76;97190.80;1615391;88;20989;-78
2021/06/13 00:19:14;;;;;;;5.92;5.08;;;;;;;16.20;71.60;97188.03;1629594;88;21053;-79
2021/06/13 00:21:43;;;;;;;7.58;5.70;;;;;;;16.22;70.78;97183.43;1628447;88;21026;-78
2021/06/13 00:24:12;;;;;;;7.45;5.28;;;;;;;16.25;70.96;97185.04;1606764;87;21091;-79
2021/06/13 00:26:39;;;;;;;10.63;5.50;;;;;;;16.25;71.12;97188.59;1614385;88;21057;-77
2021/06/13 00:29:05;;;;;;;7.25;5.20;;;;;;;16.23;70.77;97190.48;1603326;88;21031;-78
2021/06/13 00:31:32;;;;;;;6.22;5.20;;;;;;;16.20;71.10;97187.53;1618384;88;21006;-77
2021/06/13 00:33:59;;;;;;;7.87;5.10;;;;;;;16.19;71.30;97183.65;1640847;86;21000;-79
2021/06/13 00:36:27;;;;;;;6.28;5.37;;;;;;;16.18;71.12;97190.80;1625367;86;22238;-79
2021/06/13 00:38:55;;;;;;;6.92;4.80;;;;;;;16.18;71.00;97180.11;1635103;87;21024;-78
2021/06/13 00:41:26;;;;;;;6.60;4.92;;;;;;;16.18;71.64;97182.78;1613292;88;21477;-78
2021/06/13 00:43:53;;;;;;;5.50;4.62;;;;;;;16.19;71.45;97176.47;1630083;88;21018;-77
2021/06/13 00:46:19;;;;;;;5.20;4.70;;;;;;;16.20;71.46;97174.16;1629689;86;21150;-76
2021/06/13 00:48:47;;;;;;;7.03;4.72;;;;;;;16.19;71.72;97179.14;1610509;88;21459;-77
2021/06/13 00:51:14;;;;;;;5.25;4.75;;;;;;;16.19;72.36;97172.45;1638360;86;21051;-78
2021/06/13 00:53:42;;;;;;;7.37;4.40;;;;;;;16.16;74.39;97168.67;1629275;88;21120;-78
2021/06/13 00:56:10;;;;;;;8.85;5.00;;;;;;;16.10;75.44;97161.90;1632011;88;21561;-78
2021/06/13 00:58:39;;;;;;;6.62;4.83;;;;;;;16.06;77.09;97154.17;1629609;88;21608;-80
2021/06/13 01:01:07;;;;;;;6.60;4.20;;;;;;;15.96;77.72;97144.58;1616206;86;21006;-80
2021/06/13 01:03:35;;;;;;;4.78;4.20;;;;;;;15.91;77.46;97143.48;1653661;87;21005;-82
2021/06/13 01:06:03;;;;;;;7.40;4.58;;;;;;;15.85;78.66;97138.55;1659007;86;21470;-82
2021/06/13 01:08:44;;;;;;;4.83;4.08;;;;;;;15.81;80.01;97133.89;1637907;87;22137;-80
2021/06/13 01:12:02;;;;;;;6.65;4.12;;;;;;;15.77;80.76;97128.83;1636168;86;21013;-78
2021/06/13 01:15:04;;;;;;;4.62;4.20;;;;;;;15.75;81.75;97114.27;1603901;88;21018;-79
2021/06/13 01:18:04;;;;;;;5.62;5.00;;;;;;;15.80;80.35;97106.80;1633644;88;21469;-79
2021/06/13 01:20:42;;;;;;;6.12;4.28;;;;;;;15.83;80.74;97099.91;1618680;87;21011;-79
2021/06/13 01:24:00;;;;;;;4.97;4.40;;;;;;;15.90;81.40;97084.83;1606682;89;21036;-78
2021/06/13 01:26:35;;;;;;;5.28;4.78;;;;;;;15.92;81.75;97070.41;1604482;89;21020;-78
2021/06/13 01:29:11;;;;;;;4.78;4.05;;;;;;;15.95;81.32;97062.20;1605190;89;21457;-79
2021/06/13 01:31:45;;;;;;;7.67;4.80;;;;;;;15.95;82.95;97075.56;1607845;89;21547;-78
2021/06/13 01:34:42;;;;;;;5.42;4.80;;;;;;;15.95;82.12;97068.88;1608050;89;21076;-79
2021/06/13 01:37:16;;;;;;;6.47;4.75;;;;;;;15.93;81.84;97057.89;1614356;88;21032;-79
2021/06/13 01:39:45;;;;;;;5.05;4.60;;;;;;;15.95;82.66;97050.18;1620766;87;21040;-79
2021/06/13 01:42:17;;;;;;;6.42;5.50;;;;;;;15.98;81.37;97043.77;1607899;89;21039;-79
2021/06/13 01:44:51;;;;;;;6.08;4.72;;;;;;;15.99;81.80;97036.63;1607650;89;21489;-78
2021/06/13 01:47:21;;;;;;;6.90;5.40;;;;;;;16.01;81.45;97035.56;1624412;86;21090;-78
2021/06/13 01:49:50;;;;;;;5.90;5.30;;;;;;;16.00;82.53;97034.32;1645883;86;21408;-78
2021/06/13 01:52:19;;;;;;;6.28;4.87;;;;;;;15.98;82.69;97040.27;1666412;86;20978;-78
2021/06/13 01:54:47;;;;;;;6.67;5.55;;;;;;;15.95;81.25;97036.81;1666474;86;21093;-78
2021/06/13 01:57:15;;;;;;;6.97;5.83;;;;;;;15.94;80.86;97043.13;1666647;86;21086;-78
2021/06/13 02:00:03;;;;;;;7.65;5.62;;;;;;;15.93;80.80;97037.41;1658683;85;21097;-79
2021/06/13 02:02:32;;;;;;;6.58;5.87;;;;;;;15.94;80.80;97042.27;1648643;86;21001;-78
2021/06/13 02:05:00;;;;;;;7.70;5.80;;;;;;;15.95;80.91;97041.33;1665568;86;20980;-78
2021/06/13 02:07:28;;;;;;;6.90;5.45;;;;;;;15.94;80.92;97037.78;1654590;86;21022;-78
2021/06/13 02:09:56;;;;;;;6.92;6.15;;;;;;;15.94;81.16;97036.45;1663801;86;21007;-79
2021/06/13 02:12:25;;;;;;;8.00;6.03;;;;;;;15.93;81.20;97027.16;1638671;87;21706;-78
2021/06/13 02:14:57;;;;;;;8.53;5.90;;;;;;;15.93;81.31;97018.71;1638506;87;21475;-78
2021/06/13 02:17:26;;;;;;;5.75;5.25;;;;;;;15.93;83.44;97009.36;1638527;87;21086;-78
2021/06/13 02:19:55;;;;;;;6.25;5.65;;;;;;;15.92;82.02;97008.95;1660773;86;21010;-79
2021/06/13 02:22:24;;;;;;;5.90;5.35;;;;;;;15.93;81.73;97013.36;1666659;86;21031;-78
2021/06/13 02:24:53;;;;;;;6.42;5.30;;;;;;;15.95;81.53;97007.42;1666728;86;20994;-79
2021/06/13 02:27:24;;;;;;;6.37;5.35;;;;;;;15.96;81.41;97007.83;1666241;86;21502;-79
2021/06/13 02:29:52;;;;;;;6.70;6.00;;;;;;;15.94;81.50;97004.38;1665030;85;20986;-78
2021/06/13 02:32:21;;;;;;;5.33;4.83;;;;;;;15.94;81.51;97017.74;1661517;86;21033;-78
2021/06/13 02:34:49;;;;;;;5.80;5.30;;;;;;;15.92;83.53;97013.43;1661443;86;21427;-79
2021/06/13 02:37:18;;;;;;;6.70;5.35;;;;;;;15.92;82.51;97008.95;1661269;86;21480;-78
2021/06/13 02:39:46;;;;;;;5.95;5.35;;;;;;;15.92;82.22;97010.30;1662464;85;21005;-78
2021/06/13 02:42:15;;;;;;;5.95;5.35;;;;;;;15.91;82.16;97003.21;1659151;86;21052;-77
2021/06/13 02:44:45;;;;;;;5.80;5.15;;;;;;;15.92;83.33;97006.28;1657506;85;21065;-77
2021/06/13 02:47:14;;;;;;;5.78;5.15;;;;;;;15.92;83.98;97008.09;1658366;86;21481;-77
2021/06/13 02:49:42;;;;;;;4.80;4.40;;;;;;;15.95;83.23;97005.25;1675899;85;21425;-77
2021/06/13 02:52:27;;;;;;;4.80;4.40;;;;;;;15.95;83.91;97019.45;1686662;85;20983;-78
2021/06/13 02:54:58;;;;;;;5.03;4.10;;;;;;;15.98;83.15;97016.21;1686683;84;21445;-78
2021/06/13 02:57:44;;;;;;;6.67;4.25;;;;;;;16.02;83.32;97010.55;1686793;85;21468;-78
2021/06/13 03:00:13;;;;;;;6.58;4.55;;;;;;;16.05;83.41;97004.13;1664294;85;20978;-78
2021/06/13 03:02:46;;;;;;;4.92;4.28;;;;;;;16.13;83.71;97009.82;1658690;85;21049;-78
2021/06/13 03:05:14;;;;;;;5.22;4.67;;;;;;;16.17;83.41;97013.13;1658989;86;20993;-78
2021/06/13 03:07:44;;;;;;;5.60;4.10;;;;;;;16.21;84.39;97007.95;1659030;86;21134;-78
2021/06/13 03:10:12;;;;;;;4.70;4.30;;;;;;;16.28;83.65;97007.89;1658938;85;20993;-78
2021/06/13 03:12:41;;;;;;;5.22;4.53;;;;;;;16.35;83.57;97011.01;1657724;86;21017;-78
2021/06/13 03:15:08;;;;;;;7.45;3.80;;;;;;;16.36;84.01;97013.58;1637835;86;21004;-78
2021/06/13 03:17:37;;;;;;;4.53;4.00;;;;;;;16.31;84.75;97029.09;1657767;86;21096;-78
2021/06/13 03:20:08;;;;;;;4.97;4.12;;;;;;;16.35;84.50;97075.18;1661316;85;20970;-79
2021/06/13 03:22:37;;;;;;;5.12;3.80;;;;;;;16.27;85.97;97070.35;1686059;85;20954;-78
2021/06/13 03:25:07;;;;;;;6.15;3.40;;;;;;;16.14;86.88;97078.81;1672263;85;21466;-78
2021/06/13 03:27:37;;;;;;;4.22;3.20;;;;;;;16.03;85.43;97080.89;1657910;86;20994;-78
2021/06/13 03:30:07;;;;;;;3.50;3.20;;;;;;;15.95;86.25;97082.25;1671970;85;21040;-78
2021/06/13 03:32:36;;;;;;;3.55;2.52;;;;;;;15.84;86.41;97093.63;1658450;85;20968;-78
2021/06/13 03:35:05;;;;;;;2.77;2.00;;;;;;;15.79;86.98;97108.23;1657835;86;21047;-78
2021/06/13 03:37:33;;;;;;;2.22;1.95;;;;;;;15.73;86.23;97096.63;1658007;86;20939;-77
2021/06/13 03:40:01;;;;;;;1.90;1.70;;;;;;;15.64;85.94;97119.42;1666948;85;21034;-77
2021/06/13 03:42:29;;;;;;;3.22;1.90;;;;;;;15.53;86.75;97118.80;1658940;86;21043;-77
2021/06/13 03:44:56;;;;;;;2.62;1.80;;;;;;;15.47;86.44;97117.83;1677816;85;21445;-77
2021/06/13 03:47:24;;;;;;;2.58;1.77;;;;;;;15.38;86.41;97127.30;1659997;86;21013;-77
2021/06/13 03:49:52;;;;;;;3.87;2.15;;;;;;;15.29;86.60;97136.25;1675425;85;21018;-78
2021/06/13 03:52:20;;;;;;;2.30;1.67;;;;;;;15.18;86.21;97132.95;1680973;85;21031;-78
2021/06/13 03:54:47;;;;;;;3.17;1.80;;;;;;;15.08;89.30;97128.27;1680796;85;21062;-77
2021/06/13 03:57:14;;;;;;;4.55;1.90;;;;;;;15.02;90.52;97128.16;1681033;85;20991;-77
2021/06/13 03:59:45;;;;;;;3.35;1.60;;;;;;;14.86;90.08;97135.77;1660194;85;21055;-77
2021/06/13 04:02:13;;;;;;;3.50;1.30;;;;;;;14.82;87.76;97135.58;1715863;84;21016;-77
2021/06/13 04:04:49;;;;;;;1.82;1.30;;;;;;;14.76;87.84;97140.83;1686111;85;21028;-78
2021/06/13 04:07:18;;;;;;;1.50;1.00;;;;;;;14.75;88.08;97147.55;1686036;85;21028;-78
2021/06/13 04:09:46;;;;;;;2.55;1.40;;;;;;;14.71;87.83;97176.68;1727100;82;21385;-77
2021/06/13 04:12:20;;;;;;;3.15;1.45;;;;;;;14.64;87.89;97173.05;1743923;82;20977;-77
2021/06/13 04:14:48;;;;;;;1.82;1.20;;;;;;;14.64;88.20;97172.19;1744240;82;21024;-77
2021/06/13 04:17:19;;;;;;;1.40;1.10;;;;;;;14.62;88.51;97166.94;1744239;82;21036;-77
2021/06/13 04:19:47;;;;;;;1.50;1.02;;;;;;;14.61;88.24;97162.55;1716840;82;21009;-77
2021/06/13 04:22:18;;;;;;;1.65;1.00;;;;;;;14.59;88.49;97166.27;1713008;84;21005;-77
2021/06/13 04:24:48;;;;;;;1.07;0.88;;;;;;;14.48;87.71;97168.23;1713792;83;20997;-77
2021/06/13 04:27:23;;;;;;;1.55;1.00;;;;;;;14.45;87.39;97175.93;1716427;83;20980;-77
2021/06/13 04:29:50;;;;;;;1.42;1.15;;;;;;;14.36;86.77;97188.46;1736038;82;20996;-77
2021/06/13 04:32:18;;;;;;;1.42;1.32;;;;;;;14.26;86.39;97181.48;1744122;82;21077;-77
2021/06/13 04:34:44;;;;;;;3.67;2.20;;;;;;;14.16;86.63;97189.13;1744121;82;21028;-77
2021/06/13 04:37:12;;;;;;;2.98;1.98;;;;;;;14.13;86.85;97193.33;1744199;82;20974;-77
2021/06/13 04:39:38;;;;;;;4.17;1.30;;;;;;;13.99;86.68;97194.09;1726905;82;20946;-77
2021/06/13 04:42:06;;;;;;;1.50;1.00;;;;;;;13.84;87.50;97203.33;1713641;83;21056;-77
2021/06/13 04:44:35;;;;;;;3.65;1.30;;;;;;;13.83;86.21;97215.42;1716168;83;20980;-77
2021/06/13 04:47:07;;;;;;;2.20;1.30;;;;;;;13.79;86.47;97217.38;1713535;83;20985;-78
2021/06/13 04:49:34;;;;;;;1.90;1.67;;;;;;;13.76;85.90;97218.89;1737613;82;21414;-77
2021/06/13 04:52:01;;;;;;;2.35;1.30;;;;;;;13.74;87.21;97226.09;1744405;82;21084;-77
2021/06/13 04:54:59;;;;;;;1.85;1.40;;;;;;;13.75;86.40;97216.30;1744403;82;21069;-77
2021/06/13 04:57:37;;;;;;;2.37;1.65;;;;;;;13.77;87.21;97201.09;1744343;82;21042;-77
2021/06/13 05:00:05;;;;;;;2.02;1.47;;;;;;;13.77;87.60;97213.95;1715058;82;21009;-77
2021/06/13 05:02:33;;;;;;;1.62;1.40;;;;;;;13.76;89.45;97206.91;1718612;83;20981;-77
2021/06/13 05:05:00;;;;;;;1.67;1.02;;;;;;;13.74;89.90;97214.11;1666204;85;21046;-77
2021/06/13 05:07:27;;;;;;;1.87;1.35;;;;;;;13.82;88.77;97225.66;1666344;85;21034;-77
2021/06/13 05:09:54;;;;;;;1.82;1.32;;;;;;;13.85;88.91;97221.05;1663668;85;20982;-77
2021/06/13 05:12:22;;;;;;;1.92;1.22;;;;;;;13.89;88.77;97226.19;1661984;86;21011;-77
2021/06/13 05:14:49;;;;;;;1.20;1.10;;;;;;;13.91;88.08;97222.98;1661931;86;21013;-78
2021/06/13 05:17:16;;;;;;;1.70;1.25;;;;;;;13.96;87.38;97228.91;1661771;86;20994;-77
2021/06/13 05:19:42;;;;;;;1.92;1.30;;;;;;;14.02;87.00;97231.22;1678548;85;20997;-77
2021/06/13 05:22:09;;;;;;;1.07;0.98;;;;;;;14.02;86.44;97235.69;1668721;85;21078;-77
2021/06/13 05:24:36;;;;;;;1.87;1.17;;;;;;;13.99;86.06;97234.92;1661568;86;20990;-77
2021/06/13 05:27:03;;;;;;;3.37;1.12;;;;;;;13.98;85.53;97254.52;1662938;85;21407;-77
2021/06/13 05:29:31;;;;;;;2.30;1.30;;;;;;;13.96;85.39;97255.06;1659837;85;21017;-77
2021/06/13 05:31:58;;;;;;;2.42;1.37;;;;;;;13.94;85.33;97250.77;1658124;86;20942;-77
2021/06/13 05:34:25;;;;;;;3.62;2.05;;;;;;;13.90;85.74;97258.07;1658635;86;21021;-76
2021/06/13 05:36:51;;;;;;;1.92;1.20;;;;;;;13.84;87.05;97268.58;1659635;86;20978;-78
2021/06/13 05:39:18;;;;;;;1.30;1.20;;;;;;;13.73;87.11;97272.30;1664130;85;21042;-78
2021/06/13 05:41:45;;;;;;;1.42;1.10;;;;;;;13.70;87.09;97267.17;1660459;84;21001;-78
2021/06/13 05:44:11;;;;;;;1.40;1.22;;;;;;;13.63;87.01;97279.08;1661669;86;21045;-78
2021/06/13 05:46:38;;;;;;;1.70;1.20;;;;;;;13.58;87.65;97274.84;1660990;86;21046;-79
2021/06/13 05:49:04;;;;;;;1.77;1.45;;;;;;;13.56;88.14;97278.54;1668055;83;20988;-79
2021/06/13 05:51:31;;;;;;;3.80;1.30;;;;;;;13.57;87.46;97282.91;1671197;82;21039;-78
2021/06/13 05:53:57;;;;;;;1.72;1.10;;;;;;;13.56;87.25;97291.39;1671680;83;21108;-78
2021/06/13 05:56:23;;;;;;;1.12;1.02;;;;;;;13.51;87.19;97300.09;1670124;82;21059;-77
2021/06/13 05:58:50;;;;;;;2.02;1.37;;;;;;;13.55;87.74;97298.13;1641613;87;21023;-77
2021/06/13 06:01:16;;;;;;;1.45;1.02;;;;;;;13.55;87.64;97316.76;1640814;87;21027;-77
2021/06/13 06:03:43;;;;;;;1.47;1.10;;;;;;;13.51;88.12;97323.17;1644915;86;21032;-73
2021/06/13 06:06:09;;;;;;;2.08;1.27;;;;;;;13.57;87.73;97313.53;1644017;86;20974;-74
2021/06/13 06:08:36;;;;;;;1.20;1.10;;;;;;;13.61;88.78;97319.58;1648401;86;21492;-74
2021/06/13 06:11:02;;;;;;;1.95;1.07;;;;;;;13.67;86.85;97318.75;1651579;86;21520;-74
2021/06/13 06:13:29;;;;;;;1.50;1.25;;;;;;;13.72;86.42;97319.40;1650509;86;21014;-76
2021/06/13 06:15:56;;;;;;;2.47;1.12;;;;;;;13.83;86.12;97316.14;1657414;86;21297;-76
2021/06/13 06:18:22;;;;;;;3.02;1.80;;;;;;;13.88;85.83;97325.23;1648790;86;21672;-76
2021/06/13 06:20:49;;;;;;;2.10;1.30;;;;;;;13.97;86.12;97316.74;1625609;88;21041;-73
2021/06/13 06:23:16;;;;;;;2.12;1.00;;;;;;;13.98;84.26;97318.45;1641407;86;21049;-73
2021/06/13 06:25:43;;;;;;;1.40;1.30;;;;;;;13.95;83.85;97321.27;1646027;86;20933;-75
2021/06/13 06:28:09;;;;;;;3.92;1.50;;;;;;;13.90;84.03;97326.48;1653109;86;20981;-74
2021/06/13 06:30:37;;;;;;;2.30;1.50;;;;;;;13.89;83.94;97319.41;1653485;86;21036;-74
2021/06/13 06:33:04;;;;;;;3.10;2.20;;;;;;;13.93;84.44;97328.50;1631229;86;21447;-74
2021/06/13 06:35:30;;;;;;;2.42;1.52;;;;;;;14.03;83.66;97324.02;1662162;85;20979;-75
2021/06/13 06:37:57;;;;;;;2.12;1.57;;;;;;;14.03;83.68;97322.67;1661269;86;21410;-75
2021/06/13 06:40:24;;;;;;;1.85;1.50;;;;;;;14.04;82.91;97316.40;1654007;86;21003;-74
2021/06/13 06:42:51;;;;;;;2.50;1.60;;;;;;;14.09;83.67;97307.68;1649281;86;21044;-73
2021/06/13 06:45:19;;;;;;;3.05;1.72;;;;;;;14.15;83.48;97307.33;1641063;87;21065;-74
2021/06/13 06:47:46;;;;;;;2.30;1.90;;;;;;;14.29;83.63;97309.71;1649573;84;21119;-74
2021/06/13 06:50:17;;;;;;;1.55;1.45;;;;;;;14.43;83.27;97298.27;1660029;86;22154;-74
2021/06/13 06:52:47;;;;;;;1.80;1.57;;;;;;;14.47;82.87;97305.15;1655730;86;21075;-74
2021/06/13 06:55:16;;;;;;;2.10;1.90;;;;;;;14.54;83.41;97300.33;1658557;86;21005;-74
2021/06/13 06:57:44;;;;;;;27.10;19.45;;;;;;;14.73;82.97;97305.45;1714889;82;20937;-74
2021/06/13 07:00:14;;;;;;;2.72;2.08;;;;;;;14.93;82.36;97299.47;1713829;84;21059;-74
2021/06/13 07:02:42;;;;;;;2.05;1.85;;;;;;;15.23;82.52;97299.96;1713509;84;22084;-74
2021/06/13 07:05:11;;;;;;;2.72;2.12;;;;;;;15.44;80.84;97291.98;1713343;84;21083;-74
2021/06/13 07:07:37;;;;;;;2.20;2.00;;;;;;;15.62;79.09;97297.63;1727417;82;21020;-74
2021/06/13 07:10:05;;;;;;;1.87;1.67;;;;;;;15.69;77.51;97304.29;1742790;82;21059;-74
2021/06/13 07:12:32;;;;;;;2.25;2.05;;;;;;;15.76;76.95;97302.10;1743372;82;21023;-74
2021/06/13 07:14:59;;;;;;;2.65;2.37;;;;;;;15.91;76.57;97293.63;1741229;82;21044;-75
2021/06/13 07:17:26;;;;;;;2.77;2.50;;;;;;;15.93;75.36;97303.29;1713864;82;21043;-74
2021/06/13 07:19:52;;;;;;;2.75;2.33;;;;;;;15.94;76.46;97298.78;1714359;83;21438;-74
2021/06/13 07:22:19;;;;;;;4.75;2.55;;;;;;;16.01;76.25;97296.59;1714530;84;21024;-73
2021/06/13 07:24:45;;;;;;;3.10;2.47;;;;;;;16.00;75.47;97289.07;1714151;84;21071;-73
2021/06/13 07:27:12;;;;;;;2.67;2.45;;;;;;;16.04;75.15;97295.94;1722322;82;20967;-74
2021/06/13 07:29:39;;;;;;;2.87;2.42;;;;;;;16.06;74.73;97294.02;1743868;82;21482;-73
2021/06/13 07:32:06;;;;;;;3.02;2.50;;;;;;;16.10;75.16;97319.60;1743765;82;21036;-73
2021/06/13 07:34:33;;;;;;;3.12;2.80;;;;;;;16.03;74.79;97309.40;1743975;82;21008;-73
2021/06/13 07:37:02;;;;;;;4.10;2.70;;;;;;;16.03;75.80;97320.09;1737613;82;21386;-73
2021/06/13 07:39:27;;;;;;;4.33;3.20;;;;;;;16.05;75.18;97320.84;1714232;84;21028;-73
2021/06/13 07:41:54;;;;;;;4.90;2.47;;;;;;;16.15;75.12;97331.33;1714549;84;21000;-73
2021/06/13 07:44:21;;;;;;;4.00;3.20;;;;;;;16.11;72.86;97321.78;1714338;84;21513;-73
2021/06/13 07:46:48;;;;;;;4.47;3.40;;;;;;;16.19;73.33;97338.20;1716787;82;21033;-74
2021/06/13 07:49:14;;;;;;;7.67;3.20;;;;;;;16.23;73.36;97348.22;1744131;82;21005;-73
2021/06/13 07:51:41;;;;;;;3.58;2.70;;;;;;;16.34;73.27;97343.06;1744415;82;21036;-74
2021/06/13 07:54:07;;;;;;;3.47;3.17;;;;;;;16.37;71.92;97339.34;1744569;82;21053;-74
2021/06/13 07:56:34;;;;;;;5.67;2.95;;;;;;;16.36;71.71;97344.31;1744661;82;21024;-74
2021/06/13 07:59:00;;;;;;;3.80;3.22;;;;;;;16.34;71.85;97343.53;1742324;82;21545;-74
2021/06/13 08:01:27;;;;;;;3.77;3.40;;;;;;;16.40;72.74;97357.00;1744529;82;20973;-75
2021/06/13 08:03:54;;;;;;;3.90;3.15;;;;;;;16.42;72.78;97354.61;1744410;82;21001;-74
2021/06/13 08:06:20;;;;;;;3.85;3.25;;;;;;;16.46;72.44;97352.59;1744307;82;21046;-74
2021/06/13 08:08:47;;;;;;;3.95;3.55;;;;;;;16.47;71.41;97357.84;1719779;82;20981;-74
2021/06/13 08:11:14;;;;;;;10.98;8.15;;;;;;;16.54;71.34;97360.12;1714891;83;20992;-74
2021/06/13 08:13:40;;;;;;;13.43;5.58;;;;;;;16.62;71.58;97359.16;1714892;84;21457;-74
2021/06/13 08:16:07;;;;;;;3.35;3.00;;;;;;;16.75;70.62;97363.23;1714735;84;20997;-75
2021/06/13 08:18:34;;;;;;;13.10;2.87;;;;;;;16.87;69.75;97366.42;1715885;82;20969;-75
2021/06/13 08:21:01;;;;;;;4.37;3.15;;;;;;;16.81;69.92;97376.20;1744446;82;21433;-75
2021/06/13 08:23:31;;;;;;;4.80;2.87;;;;;;;16.89;70.75;97389.08;1744596;82;20953;-75
2021/06/13 08:25:58;;;;;;;3.35;2.92;;;;;;;16.93;68.69;97379.89;1726713;82;21473;-75
2021/06/13 08:28:26;;;;;;;3.47;3.17;;;;;;;16.88;69.40;97387.36;1714869;84;21748;-74
2021/06/13 08:30:53;;;;;;;3.37;3.08;;;;;;;16.92;70.17;97372.83;1714857;84;21060;-75
2021/06/13 08:33:19;;;;;;;3.45;2.98;;;;;;;17.09;70.47;97389.62;1714886;84;20980;-75
2021/06/13 08:35:46;;;;;;;4.58;2.90;;;;;;;17.20;68.86;97391.12;1730507;82;21119;-75
2021/06/13 08:38:12;;;;;;;3.37;2.83;;;;;;;17.30;69.20;97386.50;1723513;82;20969;-75
2021/06/13 08:40:39;;;;;;;3.33;2.37;;;;;;;17.30;66.68;97387.34;1715209;84;21077;-75
2021/06/13 08:43:07;;;;;;;3.55;2.70;;;;;;;17.34;67.41;97394.20;1715092;84;21449;-75
2021/06/13 08:45:36;;;;;;;4.15;2.77;;;;;;;17.35;67.46;97388.38;1727493;82;21382;-75
2021/06/13 08:48:06;;;;;;;3.10;2.80;;;;;;;17.25;67.40;97390.80;1744503;82;21072;-74
2021/06/13 08:50:33;;;;;;;4.47;2.22;;;;;;;17.23;68.03;97387.38;1744145;82;21064;-75
2021/06/13 08:53:02;;;;;;;2.58;1.90;;;;;;;17.32;66.99;97380.55;1744142;82;21070;-75
2021/06/13 08:55:32;;;;;;;4.05;2.10;;;;;;;17.37;63.04;97372.59;1741689;82;20989;-75
2021/06/13 08:58:00;;;;;;;2.60;2.00;;;;;;;17.51;64.80;97383.70;1744121;82;20973;-75
2021/06/13 09:00:31;;;;;;;2.00;1.82;;;;;;;17.63;59.32;97371.75;1744064;82;21041;-75
2021/06/13 09:02:59;;;;;;;2.12;1.77;;;;;;;17.83;62.28;97384.27;1743989;82;20982;-75
2021/06/13 09:05:27;;;;;;;2.30;1.90;;;;;;;17.84;60.36;97388.66;1737026;82;21015;-75
2021/06/13 09:08:01;;;;;;;2.50;1.82;;;;;;;17.85;58.64;97393.91;1714485;84;21461;-75
2021/06/13 09:10:30;;;;;;;;;;;;;;;17.79;59.42;97392.53;1716940;83;21051;-75
2021/06/13 09:13:25;;;;;;;4.25;2.45;;;;;;;17.74;61.43;97389.78;1714503;84;20386;-74
2021/06/13 09:15:59;;;;;;;5.58;4.65;;;;;;;17.79;60.81;97409.08;1718405;82;21021;-74
2021/06/13 09:18:38;;;;;;;3.35;2.15;;;;;;;17.94;61.21;97404.50;1719086;82;20996;-74
2021/06/13 09:21:14;;;;;;;3.05;1.67;;;;;;;17.99;59.49;97408.19;1714585;84;21021;-74
2021/06/13 09:23:42;;;;;;;4.08;1.90;;;;;;;17.98;59.54;97397.94;1718040;82;21075;-74
2021/06/13 09:26:19;;;;;;;4.00;1.70;;;;;;;18.22;59.54;97399.06;1743815;82;20985;-75
2021/06/13 09:28:49;;;;;;;1.80;1.50;;;;;;;18.32;59.59;97388.05;1744102;82;21016;-75
2021/06/13 09:31:24;;;;;;;2.45;1.60;;;;;;;18.19;54.27;97398.29;1743995;82;21072;-74
2021/06/13 09:33:57;;;;;;;1.77;1.60;;;;;;;18.04;56.50;97402.89;1738966;82;21426;-75
2021/06/13 09:36:33;;;;;;;4.70;1.62;;;;;;;17.90;55.12;97394.95;1714451;84;21466;-76
2021/06/13 09:39:05;;;;;;;2.17;1.55;;;;;;;17.81;56.76;97401.78;1714490;84;21071;-74
2021/06/13 09:41:39;;;;;;;2.40;1.92;;;;;;;17.76;56.14;97413.30;1714466;84;21438;-74
2021/06/13 09:44:11;;;;;;;3.87;1.60;;;;;;;17.78;56.52;97422.11;1720025;82;21000;-75
2021/06/13 09:46:44;;;;;;;5.83;1.80;;;;;;;17.90;57.21;97423.09;1744182;82;21434;-75
2021/06/13 09:49:14;;;;;;;5.30;1.92;;;;;;;18.04;57.80;97420.79;1743978;82;21083;-75
2021/06/13 09:51:45;;;;;;;7.70;1.80;;;;;;;18.28;57.75;97428.99;1743923;82;21501;-75
2021/06/13 09:54:22;;;;;;;6.45;1.95;;;;;;;18.51;54.52;97441.74;1741955;82;20977;-75
2021/06/13 09:56:50;;;;;;;4.30;1.70;;;;;;;18.65;55.70;97433.56;1744110;82;21004;-75
2021/06/13 09:59:32;;;;;;;1.90;1.60;;;;;;;18.96;55.95;97439.38;1743830;82;21040;-75
2021/06/13 10:02:01;;;;;;;2.45;2.10;;;;;;;19.11;51.39;97441.45;1741880;82;21557;-75
2021/06/13 10:04:36;;;;;;;3.50;1.65;;;;;;;19.21;52.17;97449.70;1714198;84;21044;-75
2021/06/13 10:07:20;;;;;;;5.67;1.70;;;;;;;19.02;48.91;97444.80;1714536;84;21422;-75
2021/06/13 10:09:53;;;;;;;2.10;1.70;;;;;;;19.01;51.80;97441.72;1714478;84;21052;-74
2021/06/13 10:12:21;;;;;;;3.70;1.90;;;;;;;19.02;49.94;97486.90;1716414;82;21394;-74
2021/06/13 10:14:49;;;;;;;1.65;1.55;;;;;;;19.08;51.49;97439.00;1714450;84;21502;-74
2021/06/13 10:17:19;;;;;;;2.60;1.75;;;;;;;19.04;51.42;97438.85;1714497;84;21417;-75
2021/06/13 10:19:49;;;;;;;3.17;1.82;;;;;;;19.16;52.78;97445.15;1714323;84;21068;-74
2021/06/13 10:22:17;;;;;;;3.08;1.82;;;;;;;19.36;51.73;97442.31;1739601;82;20985;-74
2021/06/13 10:24:48;;;;;;;2.30;1.60;;;;;;;19.46;50.88;97442.97;1744028;82;21068;-75
2021/06/13 10:27:19;;;;;;;2.67;1.67;;;;;;;19.53;51.39;97463.05;1744011;82;20969;-74
2021/06/13 10:29:49;;;;;;;2.02;1.62;;;;;;;19.48;49.74;97467.91;1744192;82;21469;-74
2021/06/13 10:32:20;;;;;;;2.85;1.87;;;;;;;19.32;48.68;97470.40;1719253;82;21011;-75
2021/06/13 10:34:46;;;;;;;2.55;1.67;;;;;;;19.27;50.47;97471.23;1714375;82;21101;-74
2021/06/13 10:37:14;;;;;;;2.50;1.80;;;;;;;19.26;51.10;97464.98;1714534;84;21398;-74
2021/06/13 10:39:40;;;;;;;4.80;1.90;;;;;;;19.20;49.63;97492.31;1714407;84;21055;-75
2021/06/13 10:42:14;;;;;;;3.12;2.08;;;;;;;18.92;50.56;97476.82;1735504;82;20993;-74
2021/06/13 10:44:51;;;;;;;3.47;2.12;;;;;;;18.90;49.24;97473.40;1744103;82;21099;-75
2021/06/13 10:47:21;;;;;;;4.83;2.12;;;;;;;19.46;50.51;97471.18;1743555;82;21040;-75
2021/06/13 10:50:00;;;;;;;4.80;2.42;;;;;;;20.08;49.91;97485.87;1720649;82;20974;-75
2021/06/13 10:52:31;;;;;;;3.33;1.95;;;;;;;21.21;47.43;97484.23;1697463;82;21056;-75
2021/06/13 10:55:02;;;;;;;4.65;1.98;;;;;;;22.09;43.42;97469.36;1744313;82;20953;-75
2021/06/13 10:57:44;;;;;;;3.27;1.60;;;;;;;22.72;43.14;97464.92;1744428;82;21001;-75
2021/06/13 11:00:28;;;;;;;22.50;17.12;;;;;;;23.60;42.63;97457.56;1744456;82;21071;-74
2021/06/13 11:02:58;;;;;;;3.10;1.82;;;;;;;23.32;41.07;97447.91;1686428;85;21056;-74
2021/06/13 11:05:39;;;;;;;2.08;1.35;;;;;;;23.94;40.10;97456.27;1686398;85;21000;-74
2021/06/13 11:08:06;;;;;;;2.10;1.60;;;;;;;24.34;37.17;97473.34;1686436;84;21488;-74
2021/06/13 11:10:32;;;;;;;4.42;1.50;;;;;;;24.56;39.19;97460.93;1689865;82;21048;-74
2021/06/13 11:13:10;;;;;;;2.67;1.55;;;;;;;24.94;38.10;97451.49;1744588;82;21008;-74
2021/06/13 11:15:45;;;;;;;2.40;1.37;;;;;;;25.18;37.64;97459.92;1744365;82;21005;-75
2021/06/13 11:18:23;;;;;;;4.78;1.50;;;;;;;25.64;32.03;97456.84;1744460;82;20974;-74
2021/06/13 11:21:28;;;;;;;2.20;1.30;;;;;;;25.34;33.50;97455.68;1739516;82;21028;-74
2021/06/13 11:23:40;;;;;;;3.40;1.60;;;;;;;24.78;33.80;97461.92;1710974;82;21024;-74
2021/06/13 11:26:11;;;;;;;2.33;1.42;;;;;;;24.31;36.07;97446.55;1714184;83;21033;-74
2021/06/13 11:28:45;;;;;;;3.20;1.87;;;;;;;24.93;35.38;97454.69;1714405;82;20985;-74
2021/06/13 11:31:17;;;;;;;2.12;1.37;;;;;;;25.48;32.20;97457.52;1723703;82;21386;-74
2021/06/13 11:33:55;;;;;;;2.52;1.50;;;;;;;25.70;32.10;97464.39;1744256;82;21029;-74
2021/06/13 11:36:26;;;;;;;3.60;1.57;;;;;;;24.80;32.04;97468.56;1744321;82;21017;-74
2021/06/13 11:39:10;;;;;;;2.83;1.50;;;;;;;23.76;33.10;97460.19;1744427;82;21087;-74
2021/06/13 11:41:47;;;;;;;3.42;1.90;;;;;;;23.20;34.93;97463.36;1730735;82;20973;-73
2021/06/13 11:44:25;;;;;;;5.78;2.98;;;;;;;22.54;35.85;97474.99;1714819;83;21017;-74
2021/06/13 11:46:53;;;;;;;4.92;1.90;;;;;;;22.23;37.34;97468.19;1713676;83;21033;-73
2021/06/13 11:49:41;;;;;;;4.42;1.95;;;;;;;22.08;37.59;97478.95;1715002;83;21036;-75